sensor_id;sensor_type;location;lat;lon;timestamp;temperature;humidity
37052;DHT22;22964;52.272;13.356;2022-12-13T00:01:43;3.70;72.30
37052;DHT22;22964;52.272;13.356;2022-12-13T00:04:10;3.70;72.40
37052;DHT22;22964;52.272;13.356;2022-12-13T00:06:35;3.70;72.50
37052;DHT22;22964;52.272;13.356;2022-12-13T00:09:03;3.70;72.60
37052;DHT22;22964;52.272;13.356;2022-12-13T00:11:29;3.70;72.70
37052;DHT22;22964;52.272;13.356;2022-12-13T00:13:55;3.70;72.70
37052;DHT22;22964;52.272;13.356;2022-12-13T00:16:23;3.70;72.80
37052;DHT22;22964;52.272;13.356;2022-12-13T00:18:51;3.70;72.80
37052;DHT22;22964;52.272;13.356;2022-12-13T00:21:26;3.70;72.90
37052;DHT22;22964;52.272;13.356;2022-12-13T00:23:52;3.70;72.90
37052;DHT22;22964;52.272;13.356;2022-12-13T00:26:20;3.70;72.90
37052;DHT22;22964;52.272;13.356;2022-12-13T00:28:47;3.70;72.90
37052;DHT22;22964;52.272;13.356;2022-12-13T00:31:16;3.70;72.90
37052;DHT22;22964;52.272;13.356;2022-12-13T00:33:43;3.70;72.90
37052;DHT22;22964;52.272;13.356;2022-12-13T00:36:09;3.70;73.00
37052;DHT22;22964;52.272;13.356;2022-12-13T00:38:37;3.70;73.00
37052;DHT22;22964;52.272;13.356;2022-12-13T00:41:18;3.70;73.10
37052;DHT22;22964;52.272;13.356;2022-12-13T00:44:05;3.70;73.10
37052;DHT22;22964;52.272;13.356;2022-12-13T00:46:33;3.70;73.10
37052;DHT22;22964;52.272;13.356;2022-12-13T00:49:12;3.70;73.10
37052;DHT22;22964;52.272;13.356;2022-12-13T00:52:10;3.60;73.00
37052;DHT22;22964;52.272;13.356;2022-12-13T00:54:51;3.70;73.10
37052;DHT22;22964;52.272;13.356;2022-12-13T00:57:16;3.70;73.10
37052;DHT22;22964;52.272;13.356;2022-12-13T00:59:45;3.60;73.10
37052;DHT22;22964;52.272;13.356;2022-12-13T01:02:11;3.60;73.10
37052;DHT22;22964;52.272;13.356;2022-12-13T01:04:37;3.60;73.10
37052;DHT22;22964;52.272;13.356;2022-12-13T01:07:03;3.60;73.10
37052;DHT22;22964;52.272;13.356;2022-12-13T01:09:29;3.70;73.20
37052;DHT22;22964;52.272;13.356;2022-12-13T01:12:02;3.60;73.10
37052;DHT22;22964;52.272;13.356;2022-12-13T01:14:29;3.50;73.00
37052;DHT22;22964;52.272;13.356;2022-12-13T01:16:55;3.60;73.10
37052;DHT22;22964;52.272;13.356;2022-12-13T01:19:25;3.60;73.20
37052;DHT22;22964;52.272;13.356;2022-12-13T01:21:59;3.60;73.20
37052;DHT22;22964;52.272;13.356;2022-12-13T01:24:25;3.60;74.10
37052;DHT22;22964;52.272;13.356;2022-12-13T01:26:52;3.60;73.20
37052;DHT22;22964;52.272;13.356;2022-12-13T01:29:18;3.60;73.20
37052;DHT22;22964;52.272;13.356;2022-12-13T01:31:45;3.50;73.20
37052;DHT22;22964;52.272;13.356;2022-12-13T01:34:12;3.50;73.20
37052;DHT22;22964;52.272;13.356;2022-12-13T01:36:39;3.50;74.00
37052;DHT22;22964;52.272;13.356;2022-12-13T01:39:16;3.60;73.20
37052;DHT22;22964;52.272;13.356;2022-12-13T01:41:47;3.50;73.10
37052;DHT22;22964;52.272;13.356;2022-12-13T01:47:20;3.50;73.20
37052;DHT22;22964;52.272;13.356;2022-12-13T01:49:48;3.50;73.20
37052;DHT22;22964;52.272;13.356;2022-12-13T01:52:15;3.50;73.20
37052;DHT22;22964;52.272;13.356;2022-12-13T01:54:45;3.50;73.20
37052;DHT22;22964;52.272;13.356;2022-12-13T01:57:17;3.50;73.20
37052;DHT22;22964;52.272;13.356;2022-12-13T01:59:44;3.50;73.20
37052;DHT22;22964;52.272;13.356;2022-12-13T02:02:11;3.50;73.20
37052;DHT22;22964;52.272;13.356;2022-12-13T02:04:47;3.50;73.20
37052;DHT22;22964;52.272;13.356;2022-12-13T02:07:18;3.50;73.20
37052;DHT22;22964;52.272;13.356;2022-12-13T02:09:44;3.50;73.20
37052;DHT22;22964;52.272;13.356;2022-12-13T02:12:11;3.50;73.20
37052;DHT22;22964;52.272;13.356;2022-12-13T02:14:40;3.50;73.20
37052;DHT22;22964;52.272;13.356;2022-12-13T02:31:15;3.50;73.20
37052;DHT22;22964;52.272;13.356;2022-12-13T02:36:36;3.50;73.10
37052;DHT22;22964;52.272;13.356;2022-12-13T02:39:07;3.50;73.10
37052;DHT22;22964;52.272;13.356;2022-12-13T02:41:40;3.50;73.20
37052;DHT22;22964;52.272;13.356;2022-12-13T02:44:17;3.50;73.20
37052;DHT22;22964;52.272;13.356;2022-12-13T02:47:04;3.50;73.20
37052;DHT22;22964;52.272;13.356;2022-12-13T02:49:34;3.50;73.20
37052;DHT22;22964;52.272;13.356;2022-12-13T02:52:04;3.50;73.90
37052;DHT22;22964;52.272;13.356;2022-12-13T02:54:34;3.40;73.00
37052;DHT22;22964;52.272;13.356;2022-12-13T02:57:00;3.50;73.10
37052;DHT22;22964;52.272;13.356;2022-12-13T02:59:30;3.40;73.00
37052;DHT22;22964;52.272;13.356;2022-12-13T03:02:22;3.40;73.10
37052;DHT22;22964;52.272;13.356;2022-12-13T03:07:40;3.50;73.10
37052;DHT22;22964;52.272;13.356;2022-12-13T03:10:15;3.40;72.90
37052;DHT22;22964;52.272;13.356;2022-12-13T03:12:53;3.40;72.90
37052;DHT22;22964;52.272;13.356;2022-12-13T03:15:54;3.40;72.90
37052;DHT22;22964;52.272;13.356;2022-12-13T03:18:22;3.40;72.90
37052;DHT22;22964;52.272;13.356;2022-12-13T03:20:53;3.40;72.90
37052;DHT22;22964;52.272;13.356;2022-12-13T03:23:20;3.40;73.00
37052;DHT22;22964;52.272;13.356;2022-12-13T03:25:52;3.40;73.00
37052;DHT22;22964;52.272;13.356;2022-12-13T03:28:18;3.40;73.00
37052;DHT22;22964;52.272;13.356;2022-12-13T03:30:44;3.30;73.00
37052;DHT22;22964;52.272;13.356;2022-12-13T03:33:10;3.40;73.10
37052;DHT22;22964;52.272;13.356;2022-12-13T03:35:39;3.40;73.10
37052;DHT22;22964;52.272;13.356;2022-12-13T03:38:06;3.50;73.20
37052;DHT22;22964;52.272;13.356;2022-12-13T03:40:32;3.40;73.00
37052;DHT22;22964;52.272;13.356;2022-12-13T03:42:58;3.40;73.00
37052;DHT22;22964;52.272;13.356;2022-12-13T03:45:27;3.40;73.00
37052;DHT22;22964;52.272;13.356;2022-12-13T03:47:53;3.30;72.90
37052;DHT22;22964;52.272;13.356;2022-12-13T03:50:19;3.40;73.00
37052;DHT22;22964;52.272;13.356;2022-12-13T03:52:44;3.40;73.00
37052;DHT22;22964;52.272;13.356;2022-12-13T03:55:12;3.40;73.00
37052;DHT22;22964;52.272;13.356;2022-12-13T03:57:38;3.40;73.90
37052;DHT22;22964;52.272;13.356;2022-12-13T04:00:07;3.40;73.10
37052;DHT22;22964;52.272;13.356;2022-12-13T04:02:38;3.40;73.00
37052;DHT22;22964;52.272;13.356;2022-12-13T04:05:04;3.40;73.00
37052;DHT22;22964;52.272;13.356;2022-12-13T04:07:29;3.40;72.90
37052;DHT22;22964;52.272;13.356;2022-12-13T04:09:55;3.40;72.90
37052;DHT22;22964;52.272;13.356;2022-12-13T04:12:21;3.40;72.90
37052;DHT22;22964;52.272;13.356;2022-12-13T04:15:06;3.40;72.90
37052;DHT22;22964;52.272;13.356;2022-12-13T04:17:32;3.40;72.80
37052;DHT22;22964;52.272;13.356;2022-12-13T04:19:58;3.30;72.80
37052;DHT22;22964;52.272;13.356;2022-12-13T04:22:23;3.40;72.80
37052;DHT22;22964;52.272;13.356;2022-12-13T04:24:49;3.30;72.80
37052;DHT22;22964;52.272;13.356;2022-12-13T04:27:15;3.30;72.70
37052;DHT22;22964;52.272;13.356;2022-12-13T04:29:40;3.40;72.80
37052;DHT22;22964;52.272;13.356;2022-12-13T04:32:06;3.40;72.70
37052;DHT22;22964;52.272;13.356;2022-12-13T04:34:32;3.30;72.60
37052;DHT22;22964;52.272;13.356;2022-12-13T04:36:58;3.30;72.50
37052;DHT22;22964;52.272;13.356;2022-12-13T04:39:24;3.40;72.50
37052;DHT22;22964;52.272;13.356;2022-12-13T04:41:51;3.30;72.50
37052;DHT22;22964;52.272;13.356;2022-12-13T04:44:19;3.30;72.40
37052;DHT22;22964;52.272;13.356;2022-12-13T04:46:50;3.30;72.40
37052;DHT22;22964;52.272;13.356;2022-12-13T04:49:24;3.30;72.30
37052;DHT22;22964;52.272;13.356;2022-12-13T04:52:11;3.20;73.10
37052;DHT22;22964;52.272;13.356;2022-12-13T04:55:22;3.30;72.30
37052;DHT22;22964;52.272;13.356;2022-12-13T04:58:28;3.30;72.20
37052;DHT22;22964;52.272;13.356;2022-12-13T05:01:20;3.30;72.20
37052;DHT22;22964;52.272;13.356;2022-12-13T05:04:15;3.30;72.20
37052;DHT22;22964;52.272;13.356;2022-12-13T05:07:11;3.30;72.00
37052;DHT22;22964;52.272;13.356;2022-12-13T05:10:02;3.30;72.10
37052;DHT22;22964;52.272;13.356;2022-12-13T05:16:04;3.30;72.10
37052;DHT22;22964;52.272;13.356;2022-12-13T05:19:15;3.30;72.20
37052;DHT22;22964;52.272;13.356;2022-12-13T05:22:27;3.30;72.30
37052;DHT22;22964;52.272;13.356;2022-12-13T05:25:02;3.30;72.40
37052;DHT22;22964;52.272;13.356;2022-12-13T05:28:11;3.30;72.40
37052;DHT22;22964;52.272;13.356;2022-12-13T05:34:25;3.40;72.40
37052;DHT22;22964;52.272;13.356;2022-12-13T05:37:09;3.40;72.20
37052;DHT22;22964;52.272;13.356;2022-12-13T05:39:57;3.40;72.20
37052;DHT22;22964;52.272;13.356;2022-12-13T05:43:16;3.40;72.30
37052;DHT22;22964;52.272;13.356;2022-12-13T05:45:50;3.40;72.00
37052;DHT22;22964;52.272;13.356;2022-12-13T05:48:51;3.40;72.00
37052;DHT22;22964;52.272;13.356;2022-12-13T05:51:20;3.40;72.00
37052;DHT22;22964;52.272;13.356;2022-12-13T05:53:54;3.40;71.80
37052;DHT22;22964;52.272;13.356;2022-12-13T05:56:25;3.40;71.80
37052;DHT22;22964;52.272;13.356;2022-12-13T05:58:51;3.40;71.90
37052;DHT22;22964;52.272;13.356;2022-12-13T06:01:19;3.40;71.90
37052;DHT22;22964;52.272;13.356;2022-12-13T06:03:48;3.40;71.80
37052;DHT22;22964;52.272;13.356;2022-12-13T06:06:13;3.40;71.80
37052;DHT22;22964;52.272;13.356;2022-12-13T06:08:41;3.40;71.60
37052;DHT22;22964;52.272;13.356;2022-12-13T06:11:07;3.40;71.40
37052;DHT22;22964;52.272;13.356;2022-12-13T06:13:33;3.50;71.40
37052;DHT22;22964;52.272;13.356;2022-12-13T06:16:03;3.40;71.30
37052;DHT22;22964;52.272;13.356;2022-12-13T06:18:30;3.40;71.30
37052;DHT22;22964;52.272;13.356;2022-12-13T06:21:00;3.40;71.10
37052;DHT22;22964;52.272;13.356;2022-12-13T06:23:30;3.40;71.20
37052;DHT22;22964;52.272;13.356;2022-12-13T06:25:56;3.40;71.20
37052;DHT22;22964;52.272;13.356;2022-12-13T06:28:22;3.40;71.20
37052;DHT22;22964;52.272;13.356;2022-12-13T06:30:48;3.40;71.10
37052;DHT22;22964;52.272;13.356;2022-12-13T06:33:17;3.40;71.20
37052;DHT22;22964;52.272;13.356;2022-12-13T06:35:44;3.40;71.10
37052;DHT22;22964;52.272;13.356;2022-12-13T06:38:10;3.50;71.20
37052;DHT22;22964;52.272;13.356;2022-12-13T06:40:37;3.40;71.10
37052;DHT22;22964;52.272;13.356;2022-12-13T06:43:03;3.40;71.10
37052;DHT22;22964;52.272;13.356;2022-12-13T06:45:32;3.40;71.10
37052;DHT22;22964;52.272;13.356;2022-12-13T06:47:57;3.40;71.00
37052;DHT22;22964;52.272;13.356;2022-12-13T06:50:24;3.40;71.00
37052;DHT22;22964;52.272;13.356;2022-12-13T06:52:49;3.40;71.00
37052;DHT22;22964;52.272;13.356;2022-12-13T06:55:15;3.40;70.90
37052;DHT22;22964;52.272;13.356;2022-12-13T06:57:43;3.40;71.00
37052;DHT22;22964;52.272;13.356;2022-12-13T07:00:11;3.40;70.90
37052;DHT22;22964;52.272;13.356;2022-12-13T07:02:37;3.40;70.80
37052;DHT22;22964;52.272;13.356;2022-12-13T07:05:03;3.40;70.90
37052;DHT22;22964;52.272;13.356;2022-12-13T07:07:29;3.40;70.80
37052;DHT22;22964;52.272;13.356;2022-12-13T07:09:55;3.40;70.80
37052;DHT22;22964;52.272;13.356;2022-12-13T07:12:21;3.40;70.80
37052;DHT22;22964;52.272;13.356;2022-12-13T07:14:47;3.40;70.70
37052;DHT22;22964;52.272;13.356;2022-12-13T07:17:13;3.40;70.70
37052;DHT22;22964;52.272;13.356;2022-12-13T07:19:41;3.30;70.50
37052;DHT22;22964;52.272;13.356;2022-12-13T07:22:07;3.40;70.60
37052;DHT22;22964;52.272;13.356;2022-12-13T07:24:33;3.30;70.60
37052;DHT22;22964;52.272;13.356;2022-12-13T07:26:59;3.40;71.50
37052;DHT22;22964;52.272;13.356;2022-12-13T07:29:25;3.30;70.60
37052;DHT22;22964;52.272;13.356;2022-12-13T07:31:51;3.30;70.60
37052;DHT22;22964;52.272;13.356;2022-12-13T07:34:20;3.30;70.60
37052;DHT22;22964;52.272;13.356;2022-12-13T07:36:48;3.40;70.70
37052;DHT22;22964;52.272;13.356;2022-12-13T07:39:14;3.40;70.70
37052;DHT22;22964;52.272;13.356;2022-12-13T07:41:40;3.30;70.60
37052;DHT22;22964;52.272;13.356;2022-12-13T07:44:06;3.30;70.60
37052;DHT22;22964;52.272;13.356;2022-12-13T07:46:32;3.40;70.70
37052;DHT22;22964;52.272;13.356;2022-12-13T07:49:00;3.30;70.60
37052;DHT22;22964;52.272;13.356;2022-12-13T07:51:26;3.40;70.50
37052;DHT22;22964;52.272;13.356;2022-12-13T07:53:52;3.30;70.50
37052;DHT22;22964;52.272;13.356;2022-12-13T07:56:18;3.40;70.40
37052;DHT22;22964;52.272;13.356;2022-12-13T07:58:43;3.40;70.30
37052;DHT22;22964;52.272;13.356;2022-12-13T08:01:10;3.40;70.30
37052;DHT22;22964;52.272;13.356;2022-12-13T08:03:39;3.30;70.30
37052;DHT22;22964;52.272;13.356;2022-12-13T08:06:07;3.30;70.00
37052;DHT22;22964;52.272;13.356;2022-12-13T08:08:33;3.40;70.00
37052;DHT22;22964;52.272;13.356;2022-12-13T08:11:01;3.30;69.90
37052;DHT22;22964;52.272;13.356;2022-12-13T08:13:38;3.30;70.00
37052;DHT22;22964;52.272;13.356;2022-12-13T08:16:09;3.40;70.10
37052;DHT22;22964;52.272;13.356;2022-12-13T08:19:09;3.40;70.20
37052;DHT22;22964;52.272;13.356;2022-12-13T08:21:50;3.40;70.10
37052;DHT22;22964;52.272;13.356;2022-12-13T08:24:49;3.40;70.30
37052;DHT22;22964;52.272;13.356;2022-12-13T08:30:40;3.40;71.10
37052;DHT22;22964;52.272;13.356;2022-12-13T08:33:56;3.30;70.20
37052;DHT22;22964;52.272;13.356;2022-12-13T08:36:41;3.30;70.30
37052;DHT22;22964;52.272;13.356;2022-12-13T08:40:02;3.40;70.20
37052;DHT22;22964;52.272;13.356;2022-12-13T08:42:50;3.40;70.00
37052;DHT22;22964;52.272;13.356;2022-12-13T08:45:50;3.40;70.00
37052;DHT22;22964;52.272;13.356;2022-12-13T08:48:51;3.40;69.90
37052;DHT22;22964;52.272;13.356;2022-12-13T08:52:08;3.40;69.90
37052;DHT22;22964;52.272;13.356;2022-12-13T08:54:36;3.40;69.90
37052;DHT22;22964;52.272;13.356;2022-12-13T08:57:22;3.40;70.20
37052;DHT22;22964;52.272;13.356;2022-12-13T08:59:48;3.40;70.20
37052;DHT22;22964;52.272;13.356;2022-12-13T09:02:46;3.40;70.20
37052;DHT22;22964;52.272;13.356;2022-12-13T09:05:29;3.40;69.90
37052;DHT22;22964;52.272;13.356;2022-12-13T09:08:18;3.50;70.20
37052;DHT22;22964;52.272;13.356;2022-12-13T09:11:02;3.40;70.10
37052;DHT22;22964;52.272;13.356;2022-12-13T09:13:33;3.50;70.10
37052;DHT22;22964;52.272;13.356;2022-12-13T09:16:22;3.50;70.00
37052;DHT22;22964;52.272;13.356;2022-12-13T09:19:18;3.50;70.00
37052;DHT22;22964;52.272;13.356;2022-12-13T09:22:11;3.50;70.00
37052;DHT22;22964;52.272;13.356;2022-12-13T09:24:58;3.50;70.20
37052;DHT22;22964;52.272;13.356;2022-12-13T09:27:27;3.50;70.10
37052;DHT22;22964;52.272;13.356;2022-12-13T09:30:12;3.50;69.80
37052;DHT22;22964;52.272;13.356;2022-12-13T09:33:14;3.60;69.70
37052;DHT22;22964;52.272;13.356;2022-12-13T09:39:00;3.60;69.70
37052;DHT22;22964;52.272;13.356;2022-12-13T09:41:55;3.80;70.10
37052;DHT22;22964;52.272;13.356;2022-12-13T09:45:04;3.70;69.60
37052;DHT22;22964;52.272;13.356;2022-12-13T09:47:58;3.70;69.40
37052;DHT22;22964;52.272;13.356;2022-12-13T09:50:59;3.70;69.20
37052;DHT22;22964;52.272;13.356;2022-12-13T09:53:30;3.70;70.00
37052;DHT22;22964;52.272;13.356;2022-12-13T09:56:00;3.80;69.10
37052;DHT22;22964;52.272;13.356;2022-12-13T09:58:59;3.80;68.80
37052;DHT22;22964;52.272;13.356;2022-12-13T10:11:15;3.80;68.60
37052;DHT22;22964;52.272;13.356;2022-12-13T10:14:29;3.80;68.30
37052;DHT22;22964;52.272;13.356;2022-12-13T10:17:08;3.80;68.20
37052;DHT22;22964;52.272;13.356;2022-12-13T10:19:43;3.80;68.20
37052;DHT22;22964;52.272;13.356;2022-12-13T10:22:14;3.80;68.30
37052;DHT22;22964;52.272;13.356;2022-12-13T10:24:54;3.80;68.20
37052;DHT22;22964;52.272;13.356;2022-12-13T10:27:49;3.80;67.80
37052;DHT22;22964;52.272;13.356;2022-12-13T10:30:17;3.80;68.00
37052;DHT22;22964;52.272;13.356;2022-12-13T10:35:34;3.80;67.90
37052;DHT22;22964;52.272;13.356;2022-12-13T10:40:42;3.90;67.60
37052;DHT22;22964;52.272;13.356;2022-12-13T10:43:17;3.90;68.00
37052;DHT22;22964;52.272;13.356;2022-12-13T10:48:24;3.90;67.70
37052;DHT22;22964;52.272;13.356;2022-12-13T10:51:03;4.00;68.10
37052;DHT22;22964;52.272;13.356;2022-12-13T10:53:44;4.00;68.20
37052;DHT22;22964;52.272;13.356;2022-12-13T10:56:10;4.00;68.10
37052;DHT22;22964;52.272;13.356;2022-12-13T10:58:41;4.10;68.20
37052;DHT22;22964;52.272;13.356;2022-12-13T11:04:25;4.10;67.90
37052;DHT22;22964;52.272;13.356;2022-12-13T11:07:26;4.10;67.80
37052;DHT22;22964;52.272;13.356;2022-12-13T11:09:52;4.10;67.70
37052;DHT22;22964;52.272;13.356;2022-12-13T11:12:26;4.20;67.70
37052;DHT22;22964;52.272;13.356;2022-12-13T11:15:00;4.20;67.20
37052;DHT22;22964;52.272;13.356;2022-12-13T11:17:29;4.30;67.40
37052;DHT22;22964;52.272;13.356;2022-12-13T11:20:03;4.30;67.40
37052;DHT22;22964;52.272;13.356;2022-12-13T11:22:35;4.40;67.10
37052;DHT22;22964;52.272;13.356;2022-12-13T11:25:02;4.40;67.20
37052;DHT22;22964;52.272;13.356;2022-12-13T11:39:28;4.60;66.90
37052;DHT22;22964;52.272;13.356;2022-12-13T11:42:16;4.60;67.10
37052;DHT22;22964;52.272;13.356;2022-12-13T11:48:02;4.60;66.60
37052;DHT22;22964;52.272;13.356;2022-12-13T11:50:45;4.60;66.80
37052;DHT22;22964;52.272;13.356;2022-12-13T11:56:46;4.70;66.80
37052;DHT22;22964;52.272;13.356;2022-12-13T12:05:34;4.70;66.40
37052;DHT22;22964;52.272;13.356;2022-12-13T12:16:29;4.80;66.30
37052;DHT22;22964;52.272;13.356;2022-12-13T12:18:56;4.80;66.50
37052;DHT22;22964;52.272;13.356;2022-12-13T12:24:29;4.80;65.90
37052;DHT22;22964;52.272;13.356;2022-12-13T12:32:24;4.70;65.90
37052;DHT22;22964;52.272;13.356;2022-12-13T12:44:43;4.80;66.00
37052;DHT22;22964;52.272;13.356;2022-12-13T12:59:11;4.80;66.00
37052;DHT22;22964;52.272;13.356;2022-12-13T13:11:12;4.90;66.30
37052;DHT22;22964;52.272;13.356;2022-12-13T13:16:39;4.90;66.20
37052;DHT22;22964;52.272;13.356;2022-12-13T13:28:17;4.90;65.90
37052;DHT22;22964;52.272;13.356;2022-12-13T13:31:03;4.90;65.70
37052;DHT22;22964;52.272;13.356;2022-12-13T13:34:29;4.90;65.70
37052;DHT22;22964;52.272;13.356;2022-12-13T13:37:17;4.90;65.60
37052;DHT22;22964;52.272;13.356;2022-12-13T13:43:12;5.00;66.20
37052;DHT22;22964;52.272;13.356;2022-12-13T13:49:16;5.00;66.10
37052;DHT22;22964;52.272;13.356;2022-12-13T13:52:30;5.00;65.90
37052;DHT22;22964;52.272;13.356;2022-12-13T13:58:47;5.00;65.90
37052;DHT22;22964;52.272;13.356;2022-12-13T14:29:21;5.10;64.80
37052;DHT22;22964;52.272;13.356;2022-12-13T14:31:56;5.20;65.40
37052;DHT22;22964;52.272;13.356;2022-12-13T14:34:32;5.20;66.20
37052;DHT22;22964;52.272;13.356;2022-12-13T14:37:16;5.20;64.70
37052;DHT22;22964;52.272;13.356;2022-12-13T14:39:43;5.20;64.50
37052;DHT22;22964;52.272;13.356;2022-12-13T14:42:31;5.20;64.70
37052;DHT22;22964;52.272;13.356;2022-12-13T14:45:35;5.20;64.40
37052;DHT22;22964;52.272;13.356;2022-12-13T14:48:13;5.20;64.40
37052;DHT22;22964;52.272;13.356;2022-12-13T14:50:42;5.20;64.50
37052;DHT22;22964;52.272;13.356;2022-12-13T14:58:35;5.10;64.30
37052;DHT22;22964;52.272;13.356;2022-12-13T15:01:05;5.10;64.50
37052;DHT22;22964;52.272;13.356;2022-12-13T15:03:32;5.10;64.30
37052;DHT22;22964;52.272;13.356;2022-12-13T15:06:00;5.10;64.40
37052;DHT22;22964;52.272;13.356;2022-12-13T15:08:27;5.10;64.30
37052;DHT22;22964;52.272;13.356;2022-12-13T15:10:58;5.00;64.10
37052;DHT22;22964;52.272;13.356;2022-12-13T15:13:32;4.90;63.90
37052;DHT22;22964;52.272;13.356;2022-12-13T15:16:05;4.90;63.90
37052;DHT22;22964;52.272;13.356;2022-12-13T15:18:35;4.90;64.00
37052;DHT22;22964;52.272;13.356;2022-12-13T15:21:19;4.80;64.10
37052;DHT22;22964;52.272;13.356;2022-12-13T15:23:45;4.80;64.60
37052;DHT22;22964;52.272;13.356;2022-12-13T15:26:15;4.70;64.00
37052;DHT22;22964;52.272;13.356;2022-12-13T15:28:43;4.70;64.00
37052;DHT22;22964;52.272;13.356;2022-12-13T15:31:10;4.60;64.00
37052;DHT22;22964;52.272;13.356;2022-12-13T15:33:36;4.60;64.20
37052;DHT22;22964;52.272;13.356;2022-12-13T15:36:07;4.60;64.00
37052;DHT22;22964;52.272;13.356;2022-12-13T15:38:36;4.50;63.90
37052;DHT22;22964;52.272;13.356;2022-12-13T15:41:03;4.40;63.60
37052;DHT22;22964;52.272;13.356;2022-12-13T15:43:40;4.40;63.50
37052;DHT22;22964;52.272;13.356;2022-12-13T15:46:07;4.30;63.30
37052;DHT22;22964;52.272;13.356;2022-12-13T15:48:42;4.30;63.60
37052;DHT22;22964;52.272;13.356;2022-12-13T15:51:12;4.20;63.30
37052;DHT22;22964;52.272;13.356;2022-12-13T15:56:37;4.10;63.30
37052;DHT22;22964;52.272;13.356;2022-12-13T15:59:05;4.00;63.70
37052;DHT22;22964;52.272;13.356;2022-12-13T16:01:49;4.00;63.60
37052;DHT22;22964;52.272;13.356;2022-12-13T16:04:24;3.90;63.70
37052;DHT22;22964;52.272;13.356;2022-12-13T16:06:51;3.80;63.50
37052;DHT22;22964;52.272;13.356;2022-12-13T16:09:19;3.80;63.60
37052;DHT22;22964;52.272;13.356;2022-12-13T16:12:03;3.70;64.40
37052;DHT22;22964;52.272;13.356;2022-12-13T16:19:39;3.60;63.70
37052;DHT22;22964;52.272;13.356;2022-12-13T16:22:05;3.50;64.00
37052;DHT22;22964;52.272;13.356;2022-12-13T16:24:31;3.50;63.90
37052;DHT22;22964;52.272;13.356;2022-12-13T16:26:56;3.40;63.80
37052;DHT22;22964;52.272;13.356;2022-12-13T16:29:22;3.40;63.80
37052;DHT22;22964;52.272;13.356;2022-12-13T16:31:48;3.30;63.80
37052;DHT22;22964;52.272;13.356;2022-12-13T16:34:29;3.20;63.70
37052;DHT22;22964;52.272;13.356;2022-12-13T16:36:55;3.30;63.90
37052;DHT22;22964;52.272;13.356;2022-12-13T16:39:24;3.20;63.90
37052;DHT22;22964;52.272;13.356;2022-12-13T16:41:50;3.10;63.90
37052;DHT22;22964;52.272;13.356;2022-12-13T16:44:36;3.10;63.90
37052;DHT22;22964;52.272;13.356;2022-12-13T16:47:07;3.00;63.70
37052;DHT22;22964;52.272;13.356;2022-12-13T16:49:33;2.90;64.00
37052;DHT22;22964;52.272;13.356;2022-12-13T16:51:58;2.90;64.10
37052;DHT22;22964;52.272;13.356;2022-12-13T16:54:24;2.80;64.20
37052;DHT22;22964;52.272;13.356;2022-12-13T16:56:51;2.80;64.20
37052;DHT22;22964;52.272;13.356;2022-12-13T16:59:23;2.80;64.20
37052;DHT22;22964;52.272;13.356;2022-12-13T17:01:50;2.70;64.20
37052;DHT22;22964;52.272;13.356;2022-12-13T17:04:18;2.60;64.30
37052;DHT22;22964;52.272;13.356;2022-12-13T17:06:44;2.60;64.40
37052;DHT22;22964;52.272;13.356;2022-12-13T17:09:10;2.60;64.60
37052;DHT22;22964;52.272;13.356;2022-12-13T17:11:36;2.50;64.70
37052;DHT22;22964;52.272;13.356;2022-12-13T17:14:04;2.40;64.70
37052;DHT22;22964;52.272;13.356;2022-12-13T17:16:30;2.40;64.80
37052;DHT22;22964;52.272;13.356;2022-12-13T17:18:56;2.40;64.90
37052;DHT22;22964;52.272;13.356;2022-12-13T17:21:23;2.30;65.00
37052;DHT22;22964;52.272;13.356;2022-12-13T17:23:54;2.30;65.00
37052;DHT22;22964;52.272;13.356;2022-12-13T17:26:26;2.20;65.10
37052;DHT22;22964;52.272;13.356;2022-12-13T17:28:52;2.20;65.20
37052;DHT22;22964;52.272;13.356;2022-12-13T17:31:18;2.10;65.20
37052;DHT22;22964;52.272;13.356;2022-12-13T17:33:44;2.10;65.40
37052;DHT22;22964;52.272;13.356;2022-12-13T17:36:11;2.10;65.50
37052;DHT22;22964;52.272;13.356;2022-12-13T17:38:45;2.00;65.40
37052;DHT22;22964;52.272;13.356;2022-12-13T17:41:14;2.00;65.40
37052;DHT22;22964;52.272;13.356;2022-12-13T17:43:41;2.00;65.50
37052;DHT22;22964;52.272;13.356;2022-12-13T17:46:13;1.90;65.60
37052;DHT22;22964;52.272;13.356;2022-12-13T17:48:39;1.90;65.60
37052;DHT22;22964;52.272;13.356;2022-12-13T17:51:06;1.90;65.70
37052;DHT22;22964;52.272;13.356;2022-12-13T17:53:32;1.80;65.60
37052;DHT22;22964;52.272;13.356;2022-12-13T17:56:07;1.80;65.60
37052;DHT22;22964;52.272;13.356;2022-12-13T17:58:43;1.80;65.60
37052;DHT22;22964;52.272;13.356;2022-12-13T18:01:20;1.80;65.80
37052;DHT22;22964;52.272;13.356;2022-12-13T18:03:46;1.70;65.80
37052;DHT22;22964;52.272;13.356;2022-12-13T18:06:13;1.70;65.90
37052;DHT22;22964;52.272;13.356;2022-12-13T18:08:40;1.60;65.80
37052;DHT22;22964;52.272;13.356;2022-12-13T18:11:07;1.60;65.80
37052;DHT22;22964;52.272;13.356;2022-12-13T18:13:33;1.60;65.90
37052;DHT22;22964;52.272;13.356;2022-12-13T18:16:06;1.50;65.90
37052;DHT22;22964;52.272;13.356;2022-12-13T18:18:32;1.50;65.80
37052;DHT22;22964;52.272;13.356;2022-12-13T18:21:06;1.50;65.90
37052;DHT22;22964;52.272;13.356;2022-12-13T18:23:33;1.40;65.90
37052;DHT22;22964;52.272;13.356;2022-12-13T18:26:04;1.40;65.90
37052;DHT22;22964;52.272;13.356;2022-12-13T18:28:30;1.40;65.90
37052;DHT22;22964;52.272;13.356;2022-12-13T18:30:58;1.30;65.80
37052;DHT22;22964;52.272;13.356;2022-12-13T18:33:26;1.30;65.90
37052;DHT22;22964;52.272;13.356;2022-12-13T18:35:54;1.20;65.90
37052;DHT22;22964;52.272;13.356;2022-12-13T18:38:20;1.20;66.00
37052;DHT22;22964;52.272;13.356;2022-12-13T18:40:47;1.10;66.00
37052;DHT22;22964;52.272;13.356;2022-12-13T18:43:15;1.10;66.20
37052;DHT22;22964;52.272;13.356;2022-12-13T18:45:40;1.10;66.10
37052;DHT22;22964;52.272;13.356;2022-12-13T18:48:06;1.00;66.10
37052;DHT22;22964;52.272;13.356;2022-12-13T18:50:32;1.00;66.20
37052;DHT22;22964;52.272;13.356;2022-12-13T18:52:58;1.00;66.30
37052;DHT22;22964;52.272;13.356;2022-12-13T18:55:24;0.90;66.40
37052;DHT22;22964;52.272;13.356;2022-12-13T18:57:50;0.90;66.50
37052;DHT22;22964;52.272;13.356;2022-12-13T19:00:17;0.90;66.60
37052;DHT22;22964;52.272;13.356;2022-12-13T19:02:43;0.80;66.70
37052;DHT22;22964;52.272;13.356;2022-12-13T19:05:09;0.80;66.70
37052;DHT22;22964;52.272;13.356;2022-12-13T19:07:35;0.80;66.80
37052;DHT22;22964;52.272;13.356;2022-12-13T19:10:00;0.80;67.00
37052;DHT22;22964;52.272;13.356;2022-12-13T19:12:26;0.70;67.00
37052;DHT22;22964;52.272;13.356;2022-12-13T19:15:00;0.70;67.20
37052;DHT22;22964;52.272;13.356;2022-12-13T19:17:26;0.70;67.20
37052;DHT22;22964;52.272;13.356;2022-12-13T19:19:57;0.70;67.20
37052;DHT22;22964;52.272;13.356;2022-12-13T19:22:22;0.70;67.20